Time;durP1;ratioP1;P1;durP2;ratioP2;P2;SDS_P1;SDS_P2;PMS_P1;PMS_P2;Temp;Humidity;BMP_temperature;BMP_pressure;BME280_temperature;BME280_humidity;BME280_pressure;Samples;Min_cycle;Max_cycle;Signal;HPM_P1;HPM_P2
2023/08/11 00:02:11;;;;;;;0.00;0.00;;;;;;;18.12;100.00;101971.13;5071271;28;20024;-43
2023/08/11 00:04:37;;;;;;;0.00;0.00;;;;;;;18.09;100.00;101966.94;5070936;28;20056;-45
2023/08/11 00:07:02;;;;;;;0.10;0.00;;;;;;;18.09;100.00;101963.34;5071523;28;20090;-47
2023/08/11 00:09:28;;;;;;;0.00;0.00;;;;;;;18.09;100.00;101952.44;5071244;28;20395;-45
2023/08/11 00:11:53;;;;;;;0.00;0.00;;;;;;;18.07;100.00;101963.56;5053187;28;20108;-46
2023/08/11 00:14:20;;;;;;;0.00;0.00;;;;;;;18.05;100.00;101957.47;5071067;28;20036;-45
2023/08/11 00:16:45;;;;;;;0.00;0.00;;;;;;;18.07;100.00;101954.56;5071230;28;20029;-44
2023/08/11 00:19:11;;;;;;;0.00;0.00;;;;;;;18.12;100.00;101954.78;5071317;28;20069;-43
2023/08/11 00:21:36;;;;;;;0.00;0.00;;;;;;;18.14;100.00;101955.41;5070555;28;20020;-47
2023/08/11 00:24:01;;;;;;;0.00;0.00;;;;;;;18.08;100.00;101950.78;5070909;28;20048;-46
2023/08/11 00:26:27;;;;;;;0.00;0.00;;;;;;;18.12;100.00;101947.44;5071246;28;20028;-45
2023/08/11 00:28:52;;;;;;;0.00;0.00;;;;;;;18.12;100.00;101942.00;5070484;28;20107;-44
2023/08/11 00:31:18;;;;;;;0.00;0.00;;;;;;;18.06;100.00;101931.06;5070120;28;20024;-49
2023/08/11 00:33:46;;;;;;;0.00;0.00;;;;;;;18.01;100.00;101939.88;5070704;28;20040;-45
2023/08/11 00:36:13;;;;;;;0.00;0.00;;;;;;;18.03;100.00;101939.66;5070501;28;20056;-46
2023/08/11 00:38:39;;;;;;;0.00;0.00;;;;;;;17.91;100.00;101933.97;5070677;28;20028;-43
2023/08/11 00:41:05;;;;;;;0.00;0.00;;;;;;;17.88;100.00;101940.66;5070113;28;20023;-45
2023/08/11 00:43:31;;;;;;;0.00;0.00;;;;;;;17.95;100.00;101936.06;5070420;28;20062;-46
2023/08/11 00:45:56;;;;;;;0.10;0.00;;;;;;;17.90;100.00;101932.28;5070645;28;20032;-46
2023/08/11 00:48:21;;;;;;;0.00;0.00;;;;;;;17.88;100.00;101931.66;5070542;28;20025;-46
2023/08/11 00:50:47;;;;;;;0.00;0.00;;;;;;;17.91;100.00;101923.91;5052458;28;20397;-46
2023/08/11 00:53:13;;;;;;;0.00;0.00;;;;;;;17.87;100.00;101929.97;5052607;28;20486;-45
2023/08/11 00:55:38;;;;;;;0.00;0.00;;;;;;;17.82;100.00;101927.84;5052429;28;20107;-45
2023/08/11 00:58:05;;;;;;;0.00;0.00;;;;;;;17.80;100.00;101923.66;5052510;28;20478;-44
2023/08/11 01:00:30;;;;;;;0.00;0.00;;;;;;;17.74;100.00;101937.00;5070421;28;20063;-46
2023/08/11 01:02:56;;;;;;;0.00;0.00;;;;;;;17.71;100.00;101934.69;5070497;28;20055;-43
2023/08/11 01:05:21;;;;;;;0.00;0.00;;;;;;;17.71;100.00;101923.78;5070531;28;20031;-43
2023/08/11 01:08:01;;;;;;;0.00;0.00;;;;;;;17.65;100.00;101932.78;5069717;28;20478;-48
2023/08/11 01:10:46;;;;;;;0.00;0.00;;;;;;;17.63;100.00;101936.75;5070195;28;20016;-44
2023/08/11 01:13:18;;;;;;;0.00;0.00;;;;;;;17.60;100.00;101937.16;5052646;28;20029;-45
2023/08/11 01:15:51;;;;;;;0.00;0.00;;;;;;;17.57;100.00;101937.56;5070302;28;20107;-45
2023/08/11 01:18:17;;;;;;;0.00;0.00;;;;;;;17.58;100.00;101928.34;5070862;28;20467;-44
2023/08/11 01:20:43;;;;;;;0.00;0.00;;;;;;;17.53;100.00;101927.06;5052607;28;20454;-45
2023/08/11 01:23:21;;;;;;;0.00;0.00;;;;;;;17.48;100.00;101917.81;5052886;28;20124;-45
2023/08/11 01:25:48;;;;;;;0.00;0.00;;;;;;;17.46;100.00;101919.91;5070773;28;20041;-45
2023/08/11 01:28:13;;;;;;;0.00;0.00;;;;;;;17.45;100.00;101923.66;5053050;28;20032;-45
2023/08/11 01:30:39;;;;;;;0.00;0.00;;;;;;;17.40;100.00;101921.53;5071234;28;20025;-45
2023/08/11 01:33:05;;;;;;;0.00;0.00;;;;;;;17.40;100.00;101917.97;5071050;28;20040;-43
2023/08/11 01:35:30;;;;;;;0.00;0.00;;;;;;;17.36;100.00;101909.41;5070350;28;20013;-45
2023/08/11 01:37:56;;;;;;;0.00;0.00;;;;;;;17.34;100.00;101912.31;5070321;28;20437;-44
2023/08/11 01:40:21;;;;;;;0.00;0.00;;;;;;;17.30;100.00;101916.47;5072240;28;20033;-46
2023/08/11 01:42:47;;;;;;;0.00;0.00;;;;;;;17.30;100.00;101905.59;5056544;28;20028;-45
2023/08/11 01:45:14;;;;;;;0.00;0.00;;;;;;;17.29;100.00;101908.50;5056376;28;20446;-43
2023/08/11 01:47:44;;;;;;;0.00;0.00;;;;;;;17.26;100.00;101912.47;5074251;28;20483;-45
2023/08/11 01:50:10;;;;;;;0.00;0.00;;;;;;;17.28;100.00;101926.72;5056027;28;20036;-46
2023/08/11 01:52:39;;;;;;;0.00;0.00;;;;;;;17.29;100.00;101936.56;5074232;28;20028;-47
2023/08/11 01:55:06;;;;;;;0.00;0.00;;;;;;;17.29;100.00;101925.66;5074030;28;20028;-46
2023/08/11 01:57:31;;;;;;;0.00;0.00;;;;;;;17.28;100.00;101934.03;5073470;28;20094;-42
2023/08/11 01:59:56;;;;;;;0.00;0.00;;;;;;;17.27;100.00;101933.22;5055921;28;20040;-46
2023/08/11 02:02:22;;;;;;;0.00;0.00;;;;;;;17.26;100.00;101931.50;5075489;28;20025;-42
2023/08/11 02:04:48;;;;;;;0.00;0.00;;;;;;;17.25;100.00;101929.00;5075474;28;20067;-44
2023/08/11 02:07:14;;;;;;;0.00;0.00;;;;;;;17.23;100.00;101926.47;5075604;28;20379;-43
2023/08/11 02:09:39;;;;;;;0.00;0.00;;;;;;;17.18;100.00;101928.94;5075139;28;20093;-47
2023/08/11 02:12:05;;;;;;;0.00;0.00;;;;;;;17.18;100.00;101918.06;5074119;28;20106;-43
2023/08/11 02:14:31;;;;;;;0.00;0.00;;;;;;;17.16;100.00;101916.59;5073640;28;20025;-43
2023/08/11 02:16:57;;;;;;;0.00;0.00;;;;;;;17.12;100.00;101924.31;5073034;28;20021;-45
2023/08/11 02:19:22;;;;;;;0.00;0.00;;;;;;;17.09;100.00;101919.28;5073246;28;20482;-43
2023/08/11 02:21:49;;;;;;;0.00;0.00;;;;;;;17.10;100.00;101920.94;5073385;28;20021;-44
2023/08/11 02:24:15;;;;;;;0.00;0.00;;;;;;;17.09;100.00;101922.00;5073478;28;20021;-43
2023/08/11 02:26:40;;;;;;;0.00;0.00;;;;;;;17.10;100.00;101915.50;5072843;28;20397;-42
2023/08/11 02:29:06;;;;;;;0.00;0.00;;;;;;;17.09;100.00;101911.13;5073204;28;20032;-46
2023/08/11 02:31:32;;;;;;;0.00;0.00;;;;;;;17.06;100.00;101914.22;5073047;28;20025;-46
2023/08/11 02:33:58;;;;;;;0.00;0.00;;;;;;;17.03;100.00;101906.44;5072949;28;20107;-42
2023/08/11 02:36:24;;;;;;;0.00;0.00;;;;;;;17.02;100.00;101907.50;5072828;28;20383;-45
2023/08/11 02:38:50;;;;;;;0.00;0.00;;;;;;;16.99;100.00;101907.91;5072671;28;20115;-45
2023/08/11 02:41:16;;;;;;;0.00;0.00;;;;;;;16.97;100.00;101908.09;5072846;28;20027;-44
2023/08/11 02:43:41;;;;;;;0.00;0.00;;;;;;;16.96;100.00;101911.88;5072864;28;20021;-43
2023/08/11 02:46:06;;;;;;;0.00;0.00;;;;;;;16.95;100.00;101912.06;5072888;28;20435;-47
2023/08/11 02:48:33;;;;;;;0.00;0.00;;;;;;;16.91;100.00;101913.50;5072542;28;20059;-45
2023/08/11 02:51:02;;;;;;;0.00;0.00;;;;;;;16.91;100.00;101914.34;5072886;28;20033;-43
2023/08/11 02:53:27;;;;;;;0.00;0.00;;;;;;;16.89;100.00;101914.53;5072683;28;20708;-45
2023/08/11 02:55:52;;;;;;;0.00;0.00;;;;;;;16.88;100.00;101912.84;5072516;28;20039;-46
2023/08/11 02:58:18;;;;;;;0.00;0.00;;;;;;;16.88;100.00;101912.00;5072078;28;20498;-43
2023/08/11 03:00:43;;;;;;;0.00;0.00;;;;;;;16.90;100.00;101909.91;5072878;28;20102;-45
2023/08/11 03:03:09;;;;;;;0.00;0.00;;;;;;;16.89;100.00;101914.53;5072418;28;20039;-48
2023/08/11 03:05:35;;;;;;;0.00;0.00;;;;;;;16.89;100.00;101903.66;5072889;28;20481;-43
2023/08/11 03:08:00;;;;;;;0.00;0.00;;;;;;;16.91;100.00;101899.91;5072479;28;20036;-46
2023/08/11 03:10:25;;;;;;;0.00;0.00;;;;;;;16.92;100.00;101894.25;5072317;28;20029;-44
2023/08/11 03:12:51;;;;;;;0.00;0.00;;;;;;;16.97;100.00;101899.09;5072306;28;20364;-45
2023/08/11 03:15:17;;;;;;;0.00;0.00;;;;;;;16.96;100.00;101898.25;5072368;28;20480;-48
2023/08/11 03:17:42;;;;;;;0.00;0.00;;;;;;;16.99;100.00;101886.97;5072093;28;20028;-45
2023/08/11 03:20:12;;;;;;;0.00;0.00;;;;;;;17.01;100.00;101889.50;5054637;28;20107;-47
2023/08/11 03:22:39;;;;;;;0.00;0.00;;;;;;;17.00;100.00;101902.25;5072451;28;20456;-45
2023/08/11 03:25:04;;;;;;;0.00;0.00;;;;;;;17.06;100.00;101892.44;5072532;28;20021;-45
2023/08/11 03:27:30;;;;;;;0.00;0.00;;;;;;;17.12;100.00;101891.69;5073339;28;20032;-43
2023/08/11 03:29:55;;;;;;;0.00;0.00;;;;;;;17.16;100.00;101890.22;5072938;28;20108;-45
2023/08/11 03:32:21;;;;;;;0.00;0.00;;;;;;;17.14;100.00;101883.28;5072041;28;20024;-43
2023/08/11 03:34:48;;;;;;;0.00;0.00;;;;;;;17.15;100.00;101877.66;5072327;28;20055;-48
2023/08/11 03:37:13;;;;;;;0.00;0.00;;;;;;;17.16;100.00;101871.19;5071558;28;20020;-44
2023/08/11 03:39:38;;;;;;;0.00;0.00;;;;;;;17.21;100.00;101873.31;5071788;28;20289;-46
2023/08/11 03:42:04;;;;;;;0.00;0.00;;;;;;;17.17;100.00;101866.56;5071790;28;20020;-48
2023/08/11 03:44:29;;;;;;;0.00;0.00;;;;;;;17.13;100.00;101870.75;5071581;28;20050;-45
2023/08/11 03:46:55;;;;;;;0.00;0.00;;;;;;;17.08;100.00;101868.63;5071645;28;20115;-47
2023/08/11 03:49:20;;;;;;;0.00;0.00;;;;;;;17.10;100.00;101861.94;5053461;28;20032;-43
2023/08/11 03:51:46;;;;;;;0.00;0.00;;;;;;;17.09;100.00;101859.44;5071703;28;20097;-44
2023/08/11 03:54:11;;;;;;;0.00;0.00;;;;;;;17.10;100.00;101859.22;5071518;28;20027;-45
2023/08/11 03:56:37;;;;;;;0.00;0.00;;;;;;;17.04;100.00;101851.88;5071061;28;20059;-46
2023/08/11 03:59:03;;;;;;;0.00;0.00;;;;;;;17.00;100.00;101852.47;5070926;28;20046;-48
2023/08/11 04:01:28;;;;;;;0.00;0.00;;;;;;;17.00;100.00;101849.75;5071326;28;20074;-49
2023/08/11 04:03:53;;;;;;;0.00;0.00;;;;;;;16.99;100.00;101842.63;5070930;28;20028;-45
2023/08/11 04:06:19;;;;;;;0.00;0.00;;;;;;;16.96;100.00;101846.59;5072452;28;20444;-44
2023/08/11 04:08:44;;;;;;;0.00;0.00;;;;;;;17.12;100.00;101834.56;5071538;28;20415;-45
2023/08/11 04:11:09;;;;;;;0.00;0.00;;;;;;;17.01;100.00;101840.53;5071639;28;20043;-44
2023/08/11 04:13:35;;;;;;;0.00;0.00;;;;;;;16.92;100.00;101841.75;5070111;28;20502;-44
2023/08/11 04:16:00;;;;;;;0.00;0.00;;;;;;;16.87;100.00;101837.75;5069692;28;20407;-44
2023/08/11 04:18:26;;;;;;;0.00;0.00;;;;;;;16.84;100.00;101835.41;5070250;28;20085;-44
2023/08/11 04:20:52;;;;;;;0.00;0.00;;;;;;;16.87;100.00;101836.91;5070466;28;20490;-44
2023/08/11 04:23:17;;;;;;;0.00;0.00;;;;;;;16.99;100.00;101837.19;5069624;28;20029;-45
2023/08/11 04:25:43;;;;;;;0.00;0.00;;;;;;;17.00;100.00;101839.69;5069117;28;20032;-45
2023/08/11 04:28:08;;;;;;;0.00;0.00;;;;;;;17.01;100.00;101826.94;5069397;28;20071;-49
2023/08/11 04:30:34;;;;;;;0.00;0.00;;;;;;;17.05;100.00;101820.06;5066864;28;20383;-45
2023/08/11 04:32:59;;;;;;;0.00;0.00;;;;;;;17.10;100.00;101823.88;5069029;28;20025;-44
2023/08/11 04:35:25;;;;;;;0.00;0.00;;;;;;;17.04;100.00;101819.25;5068683;28;20051;-46
2023/08/11 04:37:50;;;;;;;0.00;0.00;;;;;;;17.02;100.00;101815.88;5068577;28;20025;-45
2023/08/11 04:40:17;;;;;;;0.03;0.00;;;;;;;17.05;100.00;101803.75;5068262;28;20032;-45
2023/08/11 04:42:43;;;;;;;0.00;0.00;;;;;;;17.05;100.00;101801.88;5068836;28;20039;-45
2023/08/11 04:45:09;;;;;;;0.00;0.00;;;;;;;17.09;100.00;101810.47;5068650;28;20024;-45
2023/08/11 04:47:35;;;;;;;0.00;0.00;;;;;;;17.12;100.00;101804.63;5068153;28;20058;-44
2023/08/11 04:50:00;;;;;;;0.10;0.00;;;;;;;17.16;100.00;101799.63;5068559;28;20028;-43
2023/08/11 04:52:26;;;;;;;0.00;0.00;;;;;;;17.23;100.00;101806.78;5068769;28;20445;-44
2023/08/11 04:54:52;;;;;;;0.00;0.00;;;;;;;17.27;100.00;101813.50;5068698;28;20040;-47
2023/08/11 04:57:17;;;;;;;0.00;0.00;;;;;;;17.25;100.00;101815.56;5068536;28;20102;-45
2023/08/11 04:59:43;;;;;;;0.00;0.00;;;;;;;17.29;100.00;101808.66;5068911;28;20039;-46
2023/08/11 05:02:08;;;;;;;0.00;0.00;;;;;;;17.36;100.00;101811.44;5068475;28;20413;-45
2023/08/11 05:04:33;;;;;;;0.00;0.00;;;;;;;17.49;100.00;101805.19;5068464;28;20081;-44
2023/08/11 05:06:59;;;;;;;0.00;0.00;;;;;;;17.56;100.00;101806.03;5067975;28;20024;-44
2023/08/11 05:09:25;;;;;;;0.00;0.00;;;;;;;17.64;100.00;101802.28;5068443;28;20032;-43
2023/08/11 05:11:50;;;;;;;0.00;0.00;;;;;;;17.69;100.00;101800.66;5050460;28;20025;-43
2023/08/11 05:14:17;;;;;;;0.00;0.00;;;;;;;17.82;100.00;101802.59;5069541;28;20033;-45
2023/08/11 05:16:44;;;;;;;0.00;0.00;;;;;;;17.90;100.00;101798.81;5072685;28;20033;-44
2023/08/11 05:19:09;;;;;;;0.00;0.00;;;;;;;17.91;100.00;101798.63;5072073;28;20669;-42
2023/08/11 05:21:36;;;;;;;0.00;0.00;;;;;;;17.97;100.00;101786.06;5064862;28;20040;-47
2023/08/11 05:24:02;;;;;;;0.00;0.00;;;;;;;18.07;100.00;101786.50;5072512;28;20081;-45
2023/08/11 05:26:27;;;;;;;0.00;0.00;;;;;;;18.24;100.00;101791.53;5073002;28;20025;-45
2023/08/11 05:28:53;;;;;;;0.00;0.00;;;;;;;18.30;100.00;101793.41;5070266;28;20025;-43
2023/08/11 05:31:18;;;;;;;0.00;0.00;;;;;;;18.37;100.00;101797.81;5072297;28;20028;-49
2023/08/11 05:33:43;;;;;;;0.00;0.00;;;;;;;18.48;100.00;101790.88;5072617;28;20035;-46
2023/08/11 05:36:09;;;;;;;0.00;0.00;;;;;;;18.46;100.00;101792.13;5071879;28;20250;-42
2023/08/11 05:38:35;;;;;;;0.00;0.00;;;;;;;18.52;100.00;101789.41;5072844;28;20150;-44
2023/08/11 05:41:00;;;;;;;0.00;0.00;;;;;;;18.56;100.00;101795.28;5072245;28;20028;-43
2023/08/11 05:43:25;;;;;;;0.00;0.00;;;;;;;18.59;100.00;101790.25;5072512;28;20032;-45
2023/08/11 05:45:51;;;;;;;0.00;0.00;;;;;;;18.72;100.00;101800.31;5071107;28;20123;-47
2023/08/11 05:48:16;;;;;;;0.00;0.00;;;;;;;18.85;100.00;101799.44;5071568;28;20036;-49
2023/08/11 05:50:45;;;;;;;0.00;0.00;;;;;;;19.01;100.00;101799.00;5071903;28;20024;-44
2023/08/11 05:53:10;;;;;;;0.00;0.00;;;;;;;19.12;100.00;101800.22;5071829;28;20033;-46
2023/08/11 05:55:36;;;;;;;0.00;0.00;;;;;;;19.19;100.00;101794.72;5053756;28;20074;-47
2023/08/11 05:58:01;;;;;;;0.00;0.00;;;;;;;19.51;100.00;101787.47;5071053;28;20523;-45
2023/08/11 06:00:27;;;;;;;0.00;0.00;;;;;;;19.97;100.00;101796.44;5069898;28;20103;-43
2023/08/11 06:02:52;;;;;;;0.00;0.00;;;;;;;20.50;100.00;101796.00;5071552;28;20032;-47
2023/08/11 06:05:21;;;;;;;0.00;0.00;;;;;;;21.03;100.00;101788.06;5071578;28;20016;-43
2023/08/11 06:07:47;;;;;;;0.00;0.00;;;;;;;21.57;100.00;101780.06;5071368;28;20040;-45
2023/08/11 06:10:12;;;;;;;0.00;0.00;;;;;;;22.09;100.00;101780.31;5071730;28;20043;-46
2023/08/11 06:12:38;;;;;;;0.00;0.00;;;;;;;22.52;100.00;101765.47;5071847;28;20025;-45
2023/08/11 06:15:04;;;;;;;0.00;0.00;;;;;;;22.98;100.00;101774.72;5071023;28;20085;-44
2023/08/11 06:17:30;;;;;;;0.00;0.00;;;;;;;22.97;100.00;101764.81;5071173;28;20020;-45
2023/08/11 06:19:57;;;;;;;0.00;0.00;;;;;;;23.71;100.00;101765.97;5070779;28;20090;-45
2023/08/11 06:22:22;;;;;;;0.00;0.00;;;;;;;24.14;100.00;101781.03;5071005;28;20021;-44
2023/08/11 06:24:48;;;;;;;0.00;0.00;;;;;;;23.98;100.00;101778.03;5072956;28;20031;-45
2023/08/11 06:27:14;;;;;;;0.00;0.00;;;;;;;24.68;100.00;101776.69;5072351;28;20056;-45
2023/08/11 06:29:39;;;;;;;0.00;0.00;;;;;;;24.63;100.00;101778.53;5070905;28;20028;-45
2023/08/11 06:32:05;;;;;;;0.00;0.00;;;;;;;23.96;100.00;101773.84;5071301;28;20044;-44
2023/08/11 06:34:30;;;;;;;0.00;0.00;;;;;;;24.51;100.00;101765.72;5053369;28;20437;-43
2023/08/11 06:36:55;;;;;;;0.00;0.00;;;;;;;25.31;100.00;101768.13;5070827;28;20029;-42
2023/08/11 06:39:21;;;;;;;0.00;0.00;;;;;;;25.77;100.00;101765.84;5071188;28;20033;-43
2023/08/11 06:41:46;;;;;;;0.00;0.00;;;;;;;25.53;100.00;101765.34;5070763;28;20044;-46
2023/08/11 06:44:11;;;;;;;0.00;0.00;;;;;;;25.01;100.00;101769.38;5071172;28;20135;-46
2023/08/11 06:46:37;;;;;;;0.00;0.00;;;;;;;25.71;100.00;101762.22;5066626;28;20048;-46
2023/08/11 06:49:02;;;;;;;0.00;0.00;;;;;;;25.89;100.00;101763.78;5065674;28;20118;-47
2023/08/11 06:51:28;;;;;;;0.00;0.00;;;;;;;26.39;99.39;101762.50;5072046;28;20036;-43
2023/08/11 06:53:53;;;;;;;0.00;0.00;;;;;;;26.47;100.00;101763.94;5072683;28;20489;-43
2023/08/11 06:56:19;;;;;;;0.00;0.00;;;;;;;26.43;99.97;101762.81;5071787;28;20031;-47
2023/08/11 06:58:44;;;;;;;0.00;0.00;;;;;;;26.55;97.28;101765.41;5072381;28;20055;-45
2023/08/11 07:01:09;;;;;;;0.00;0.00;;;;;;;27.07;99.01;101773.69;5054103;28;20028;-43
2023/08/11 07:03:35;;;;;;;0.00;0.00;;;;;;;27.03;98.85;101782.78;5053839;28;20106;-43
2023/08/11 07:06:01;;;;;;;0.00;0.00;;;;;;;26.61;98.95;101776.19;5071847;28;20116;-46
2023/08/11 07:08:26;;;;;;;0.00;0.00;;;;;;;26.95;98.17;101780.53;5054792;28;20411;-45
2023/08/11 07:10:52;;;;;;;0.00;0.00;;;;;;;27.47;95.69;101787.94;5072469;28;20700;-48
2023/08/11 07:13:17;;;;;;;0.00;0.00;;;;;;;26.97;96.45;101783.84;5072466;28;20078;-44
2023/08/11 07:15:43;;;;;;;0.00;0.00;;;;;;;27.11;96.88;101785.00;5072468;28;20459;-45
2023/08/11 07:18:09;;;;;;;0.00;0.00;;;;;;;27.32;97.37;101792.28;5072370;28;20475;-46
2023/08/11 07:20:36;;;;;;;0.00;0.00;;;;;;;27.05;98.58;101788.84;5072270;28;20035;-45
2023/08/11 07:23:02;;;;;;;0.00;0.00;;;;;;;26.95;98.47;101786.06;5071973;28;20023;-45
2023/08/11 07:25:28;;;;;;;0.00;0.00;;;;;;;27.79;95.62;101791.28;5072390;28;20418;-45
2023/08/11 07:27:54;;;;;;;0.00;0.00;;;;;;;27.34;95.30;101795.63;5072405;28;20036;-46
2023/08/11 07:30:19;;;;;;;0.00;0.00;;;;;;;26.92;97.10;101787.41;5071860;28;20025;-44
2023/08/11 07:32:45;;;;;;;0.00;0.00;;;;;;;27.06;97.95;101788.56;5072034;28;20025;-45
2023/08/11 07:35:10;;;;;;;0.00;0.00;;;;;;;26.99;95.76;101792.69;5072023;28;20125;-43
2023/08/11 07:37:35;;;;;;;0.00;0.00;;;;;;;26.75;99.16;101787.59;5070725;28;20036;-47
2023/08/11 07:40:01;;;;;;;0.00;0.00;;;;;;;27.13;99.32;101788.34;5071583;28;20073;-44
2023/08/11 07:42:26;;;;;;;0.00;0.00;;;;;;;27.49;97.80;101791.22;5071936;28;20016;-46
2023/08/11 07:44:52;;;;;;;0.00;0.00;;;;;;;27.32;98.38;101797.81;5071798;28;20340;-45
2023/08/11 07:47:17;;;;;;;0.00;0.00;;;;;;;26.45;100.00;101790.97;5071714;28;20060;-46
2023/08/11 07:49:42;;;;;;;0.00;0.00;;;;;;;26.23;100.00;101783.66;5071958;28;20028;-43
2023/08/11 07:52:09;;;;;;;0.00;0.00;;;;;;;25.79;100.00;101788.47;5071618;28;20132;-44
2023/08/11 07:54:35;;;;;;;0.00;0.00;;;;;;;25.57;100.00;101791.31;5071595;28;20040;-45
2023/08/11 07:57:00;;;;;;;0.00;0.00;;;;;;;25.35;100.00;101791.31;5071643;28;20029;-44
2023/08/11 07:59:25;;;;;;;0.00;0.00;;;;;;;25.30;100.00;101800.34;5071265;28;20129;-48
2023/08/11 08:01:52;;;;;;;0.00;0.00;;;;;;;25.17;100.00;101795.22;5071182;28;20021;-41
2023/08/11 08:04:17;;;;;;;0.00;0.00;;;;;;;24.99;100.00;101790.88;5071336;28;20052;-47
2023/08/11 08:06:45;;;;;;;0.00;0.00;;;;;;;24.97;100.00;101793.03;5071263;28;20482;-44
2023/08/11 08:09:12;;;;;;;0.00;0.00;;;;;;;24.87;100.00;101790.13;5070999;28;20086;-45
2023/08/11 08:11:47;;;;;;;0.00;0.00;;;;;;;24.69;100.00;101794.84;5053388;28;20108;-43
2023/08/11 08:14:13;;;;;;;0.00;0.00;;;;;;;24.63;100.00;101795.03;5071629;28;20036;-46
2023/08/11 08:16:41;;;;;;;0.00;0.00;;;;;;;25.34;100.00;101795.16;5071041;28;20032;-45
2023/08/11 08:19:07;;;;;;;0.00;0.00;;;;;;;26.37;100.00;101797.81;5070848;28;20520;-42
2023/08/11 08:21:32;;;;;;;0.00;0.00;;;;;;;27.17;100.00;101796.91;5071317;28;20028;-44
2023/08/11 08:23:59;;;;;;;0.00;0.00;;;;;;;27.22;99.83;101786.72;5071326;28;20500;-45
2023/08/11 08:26:25;;;;;;;0.00;0.00;;;;;;;27.38;99.47;101792.31;5071183;28;20056;-45
2023/08/11 08:28:50;;;;;;;0.00;0.00;;;;;;;27.07;100.00;101793.00;5071240;28;20064;-48
2023/08/11 08:31:15;;;;;;;0.00;0.00;;;;;;;26.86;100.00;101794.84;5070844;28;20134;-47
2023/08/11 08:33:43;;;;;;;0.00;0.00;;;;;;;27.44;100.00;101803.13;5071265;28;20078;-45
2023/08/11 08:36:08;;;;;;;;;;;;;;;27.19;98.90;101803.84;5071643;28;20035;-44
2023/08/11 08:38:33;;;;;;;0.00;0.00;;;;;;;26.84;100.00;101799.81;5070824;28;19920;-45
2023/08/11 08:40:59;;;;;;;0.00;0.00;;;;;;;27.20;100.00;101808.31;5071244;28;20100;-47
2023/08/11 08:43:24;;;;;;;0.00;0.00;;;;;;;27.14;99.88;101801.88;5071053;28;20382;-43
2023/08/11 08:45:50;;;;;;;0.00;0.00;;;;;;;26.90;100.00;101809.78;5052966;28;20021;-47
2023/08/11 08:48:21;;;;;;;0.00;0.00;;;;;;;27.46;100.00;101802.84;5052374;28;20034;-43
2023/08/11 08:50:47;;;;;;;0.00;0.00;;;;;;;27.56;98.79;101808.41;5070645;28;20029;-42
2023/08/11 08:53:12;;;;;;;0.00;0.00;;;;;;;27.63;97.75;101797.09;5070734;28;20027;-45
2023/08/11 08:55:38;;;;;;;0.00;0.00;;;;;;;28.28;96.38;101797.41;5070737;28;20028;-43
2023/08/11 08:58:04;;;;;;;0.00;0.00;;;;;;;28.60;95.20;101794.38;5070239;28;20484;-46
2023/08/11 09:00:30;;;;;;;;;;;;;;;29.17;91.93;101789.47;5070976;28;20052;-45
2023/08/11 09:02:57;;;;;;;0.00;0.00;;;;;;;29.79;89.88;101787.22;5070229;28;19916;-42
2023/08/11 09:05:22;;;;;;;0.00;0.00;;;;;;;30.26;88.03;101786.56;5070619;28;20453;-42
2023/08/11 09:07:48;;;;;;;0.00;0.00;;;;;;;30.59;87.21;101786.75;5052588;28;20094;-44
2023/08/11 09:10:13;;;;;;;0.00;0.00;;;;;;;30.73;86.13;101786.88;5069084;28;20071;-43
2023/08/11 09:12:39;;;;;;;0.00;0.00;;;;;;;30.70;84.46;101779.16;5051869;28;20062;-43
2023/08/11 09:15:11;;;;;;;0.00;0.00;;;;;;;29.89;85.37;101776.84;5069798;28;20032;-42
2023/08/11 09:17:38;;;;;;;0.00;0.00;;;;;;;29.26;89.10;101785.84;5068087;28;20487;-43
2023/08/11 09:20:04;;;;;;;0.00;0.00;;;;;;;29.34;88.97;101787.19;5051833;28;20032;-45
2023/08/11 09:22:32;;;;;;;0.00;0.00;;;;;;;29.72;89.27;101793.06;5070284;28;20082;-44
2023/08/11 09:24:57;;;;;;;0.00;0.00;;;;;;;29.34;89.27;101787.19;5070088;28;20029;-48
2023/08/11 09:27:23;;;;;;;0.00;0.00;;;;;;;29.13;91.52;101796.72;5069899;28;20040;-45
2023/08/11 09:29:49;;;;;;;0.00;0.00;;;;;;;29.23;91.51;101796.69;5051580;28;20446;-46
2023/08/11 09:32:15;;;;;;;0.00;0.00;;;;;;;29.18;90.75;101794.75;5069693;28;20055;-45
2023/08/11 09:34:43;;;;;;;0.00;0.00;;;;;;;29.51;90.04;101793.16;5069621;28;20111;-46
2023/08/11 09:37:08;;;;;;;0.00;0.00;;;;;;;30.09;90.81;101800.00;5069447;28;20036;-44
2023/08/11 09:39:34;;;;;;;0.00;0.00;;;;;;;31.31;86.49;101799.81;5069956;28;20032;-47
2023/08/11 09:42:00;;;;;;;0.00;0.00;;;;;;;31.27;84.64;101803.19;5070056;28;20055;-45
2023/08/11 09:44:26;;;;;;;0.00;0.00;;;;;;;30.54;84.65;101806.25;5069904;28;20054;-45
2023/08/11 09:46:51;;;;;;;0.00;0.00;;;;;;;29.15;89.87;101811.09;5069340;28;20047;-48
2023/08/11 09:49:17;;;;;;;0.00;0.00;;;;;;;28.48;95.70;101800.19;5047953;28;20037;-44
2023/08/11 09:51:43;;;;;;;0.00;0.00;;;;;;;29.34;95.96;101791.91;5065036;28;20037;-43
2023/08/11 09:54:10;;;;;;;0.00;0.00;;;;;;;30.22;93.25;101796.53;5070397;28;20047;-42
2023/08/11 09:56:44;;;;;;;0.00;0.00;;;;;;;30.25;86.42;101795.16;5069957;28;20448;-43
2023/08/11 09:59:11;;;;;;;0.00;0.00;;;;;;;29.89;87.54;101795.47;5069375;28;20058;-44
2023/08/11 10:01:37;;;;;;;0.00;0.00;;;;;;;30.08;88.63;101801.13;5071272;28;20090;-45
2023/08/11 10:04:11;;;;;;;0.00;0.00;;;;;;;30.56;86.30;101793.75;5073788;28;20032;-44
2023/08/11 10:06:43;;;;;;;0.00;0.00;;;;;;;31.01;85.82;101790.75;5055897;28;20580;-45
2023/08/11 10:09:12;;;;;;;0.00;0.00;;;;;;;31.61;83.74;101788.28;5055493;28;20039;-43
2023/08/11 10:11:38;;;;;;;0.00;0.00;;;;;;;32.32;82.84;101799.41;5047245;28;20039;-45
2023/08/11 10:14:04;;;;;;;0.00;0.00;;;;;;;32.35;80.11;101793.22;5028414;28;20241;-47
2023/08/11 10:16:30;;;;;;;0.00;0.00;;;;;;;32.47;81.90;101798.31;5072235;28;20036;-47
2023/08/11 10:18:58;;;;;;;0.00;0.00;;;;;;;32.67;79.78;101797.91;5054127;28;20059;-47
2023/08/11 10:21:24;;;;;;;0.45;0.00;;;;;;;32.10;79.50;101795.31;5072031;28;20436;-43
2023/08/11 10:23:50;;;;;;;;;;;;;;;32.21;80.62;101797.94;5072232;28;20035;-47
2023/08/11 10:26:15;;;;;;;0.00;0.00;;;;;;;32.31;81.22;101795.78;5055057;28;19912;-45
2023/08/11 10:28:40;;;;;;;0.00;0.00;;;;;;;31.78;80.28;101798.03;5055519;28;20076;-44
2023/08/11 10:31:06;;;;;;;0.00;0.00;;;;;;;31.25;82.95;101808.25;5073237;28;20036;-46
2023/08/11 10:33:32;;;;;;;0.00;0.00;;;;;;;30.60;87.26;101803.16;5073637;28;20040;-43
2023/08/11 10:35:59;;;;;;;0.00;0.00;;;;;;;30.36;87.06;101797.56;5073405;28;20501;-44
2023/08/11 10:38:30;;;;;;;0.00;0.00;;;;;;;29.73;86.85;101805.84;5073157;28;20040;-45
2023/08/11 10:41:05;;;;;;;0.00;0.00;;;;;;;29.23;90.38;101807.75;5072829;28;20037;-42
2023/08/11 10:43:33;;;;;;;0.00;0.00;;;;;;;28.78;92.87;101812.31;5073557;28;20059;-44
2023/08/11 10:46:24;;;;;;;0.00;0.00;;;;;;;27.99;96.77;101817.38;5074567;28;20024;-43
2023/08/11 10:49:20;;;;;;;0.00;0.00;;;;;;;27.77;97.46;101826.69;5074670;28;20482;-41
2023/08/11 10:51:45;;;;;;;0.00;0.00;;;;;;;27.65;97.44;101817.84;5057577;28;20078;-44
2023/08/11 10:54:14;;;;;;;0.00;0.00;;;;;;;28.14;95.14;101816.53;5054676;28;20029;-41
2023/08/11 10:56:44;;;;;;;0.00;0.00;;;;;;;28.94;93.99;101811.16;5054868;28;20085;-42
2023/08/11 10:59:23;;;;;;;0.00;0.00;;;;;;;29.70;89.97;101825.81;5072800;28;20060;-43
2023/08/11 11:01:52;;;;;;;0.00;0.00;;;;;;;29.67;89.93;101821.66;5072562;28;20436;-44
2023/08/11 11:04:18;;;;;;;0.00;0.00;;;;;;;30.00;88.22;101823.97;5072791;28;20052;-42
2023/08/11 11:06:45;;;;;;;0.00;0.00;;;;;;;29.53;88.69;101829.78;5072824;28;20547;-46
2023/08/11 11:09:11;;;;;;;0.00;0.00;;;;;;;30.17;88.75;101824.34;5072707;28;20089;-45
2023/08/11 11:11:37;;;;;;;0.00;0.00;;;;;;;30.49;86.52;101823.84;5072616;28;20036;-48
2023/08/11 11:14:09;;;;;;;0.00;0.00;;;;;;;31.21;84.72;101832.22;5054632;28;20020;-46
2023/08/11 11:16:35;;;;;;;0.00;0.00;;;;;;;31.34;83.44;101827.06;5072198;28;20039;-45